sensor_id;sensor_type;location;lat;lon;timestamp;temperature;humidity
22035;DHT22;11181;51.002;4.356;2023-04-03T00:01:44;7.80;99.90
22035;DHT22;11181;51.002;4.356;2023-04-03T00:04:11;7.80;99.90
22035;DHT22;11181;51.002;4.356;2023-04-03T00:06:38;7.80;99.90
22035;DHT22;11181;51.002;4.356;2023-04-03T00:09:06;7.80;99.90
22035;DHT22;11181;51.002;4.356;2023-04-03T00:11:33;7.80;99.90
22035;DHT22;11181;51.002;4.356;2023-04-03T00:14:00;7.80;99.90
22035;DHT22;11181;51.002;4.356;2023-04-03T00:16:27;7.70;99.90
22035;DHT22;11181;51.002;4.356;2023-04-03T00:18:54;7.70;99.90
22035;DHT22;11181;51.002;4.356;2023-04-03T00:21:21;7.70;99.90
22035;DHT22;11181;51.002;4.356;2023-04-03T00:23:48;7.60;99.90
22035;DHT22;11181;51.002;4.356;2023-04-03T00:26:16;7.60;99.90
22035;DHT22;11181;51.002;4.356;2023-04-03T00:28:43;7.50;99.90
22035;DHT22;11181;51.002;4.356;2023-04-03T00:31:10;7.50;99.90
22035;DHT22;11181;51.002;4.356;2023-04-03T00:33:37;7.50;99.90
22035;DHT22;11181;51.002;4.356;2023-04-03T00:36:07;7.60;99.90
22035;DHT22;11181;51.002;4.356;2023-04-03T00:38:34;7.60;99.90
22035;DHT22;11181;51.002;4.356;2023-04-03T00:41:02;7.60;99.90
22035;DHT22;11181;51.002;4.356;2023-04-03T00:43:30;7.50;99.90
22035;DHT22;11181;51.002;4.356;2023-04-03T00:45:58;7.20;99.90
22035;DHT22;11181;51.002;4.356;2023-04-03T00:48:28;7.20;99.90
22035;DHT22;11181;51.002;4.356;2023-04-03T00:50:56;7.30;99.90
22035;DHT22;11181;51.002;4.356;2023-04-03T00:53:27;7.40;99.90
22035;DHT22;11181;51.002;4.356;2023-04-03T00:55:56;7.40;99.90
22035;DHT22;11181;51.002;4.356;2023-04-03T00:58:27;7.40;99.90
22035;DHT22;11181;51.002;4.356;2023-04-03T01:00:58;7.40;99.90
22035;DHT22;11181;51.002;4.356;2023-04-03T01:03:25;7.40;99.90
22035;DHT22;11181;51.002;4.356;2023-04-03T01:05:52;7.40;99.90
22035;DHT22;11181;51.002;4.356;2023-04-03T01:08:19;7.40;99.90
22035;DHT22;11181;51.002;4.356;2023-04-03T01:10:46;7.30;99.90
22035;DHT22;11181;51.002;4.356;2023-04-03T01:13:22;7.40;99.90
22035;DHT22;11181;51.002;4.356;2023-04-03T01:15:49;7.40;99.90
22035;DHT22;11181;51.002;4.356;2023-04-03T01:18:17;7.40;99.90
22035;DHT22;11181;51.002;4.356;2023-04-03T01:26:40;7.40;99.90
22035;DHT22;11181;51.002;4.356;2023-04-03T01:29:07;7.40;99.90
22035;DHT22;11181;51.002;4.356;2023-04-03T01:31:49;7.40;99.90
22035;DHT22;11181;51.002;4.356;2023-04-03T01:34:16;7.40;99.90
22035;DHT22;11181;51.002;4.356;2023-04-03T01:36:43;7.40;99.90
22035;DHT22;11181;51.002;4.356;2023-04-03T01:39:10;7.40;99.90
22035;DHT22;11181;51.002;4.356;2023-04-03T01:41:38;7.40;99.90
22035;DHT22;11181;51.002;4.356;2023-04-03T01:44:05;7.30;99.90
22035;DHT22;11181;51.002;4.356;2023-04-03T01:46:32;7.30;99.90
22035;DHT22;11181;51.002;4.356;2023-04-03T01:49:01;7.30;99.90
22035;DHT22;11181;51.002;4.356;2023-04-03T01:51:28;7.30;99.90
22035;DHT22;11181;51.002;4.356;2023-04-03T01:53:55;7.30;99.90
22035;DHT22;11181;51.002;4.356;2023-04-03T01:56:22;7.30;99.90
22035;DHT22;11181;51.002;4.356;2023-04-03T01:58:49;7.30;99.90
22035;DHT22;11181;51.002;4.356;2023-04-03T02:01:16;7.30;99.90
22035;DHT22;11181;51.002;4.356;2023-04-03T02:03:43;7.30;99.90
22035;DHT22;11181;51.002;4.356;2023-04-03T02:06:11;7.30;99.90
22035;DHT22;11181;51.002;4.356;2023-04-03T02:08:38;7.30;99.90
22035;DHT22;11181;51.002;4.356;2023-04-03T02:11:05;7.30;99.90
22035;DHT22;11181;51.002;4.356;2023-04-03T02:13:32;7.20;99.90
22035;DHT22;11181;51.002;4.356;2023-04-03T02:16:06;7.20;99.90
22035;DHT22;11181;51.002;4.356;2023-04-03T02:18:33;7.20;99.90
22035;DHT22;11181;51.002;4.356;2023-04-03T02:21:00;7.20;99.90
22035;DHT22;11181;51.002;4.356;2023-04-03T02:23:28;7.20;99.90
22035;DHT22;11181;51.002;4.356;2023-04-03T02:26:03;7.20;99.90
22035;DHT22;11181;51.002;4.356;2023-04-03T02:28:31;7.10;99.90
22035;DHT22;11181;51.002;4.356;2023-04-03T02:30:58;7.10;99.90
22035;DHT22;11181;51.002;4.356;2023-04-03T02:33:25;7.10;99.90
22035;DHT22;11181;51.002;4.356;2023-04-03T02:35:53;7.10;99.90
22035;DHT22;11181;51.002;4.356;2023-04-03T02:38:20;7.10;99.90
22035;DHT22;11181;51.002;4.356;2023-04-03T02:40:49;7.10;99.90
22035;DHT22;11181;51.002;4.356;2023-04-03T02:43:16;7.10;99.90
22035;DHT22;11181;51.002;4.356;2023-04-03T02:45:44;7.10;99.90
22035;DHT22;11181;51.002;4.356;2023-04-03T02:48:11;7.00;99.90
22035;DHT22;11181;51.002;4.356;2023-04-03T02:50:37;7.00;99.90
22035;DHT22;11181;51.002;4.356;2023-04-03T02:53:04;7.00;99.90
22035;DHT22;11181;51.002;4.356;2023-04-03T02:55:31;7.00;99.90
22035;DHT22;11181;51.002;4.356;2023-04-03T02:58:00;7.00;99.90
22035;DHT22;11181;51.002;4.356;2023-04-03T03:00:27;7.00;99.90
22035;DHT22;11181;51.002;4.356;2023-04-03T03:02:53;7.00;99.90
22035;DHT22;11181;51.002;4.356;2023-04-03T03:05:21;7.00;99.90
22035;DHT22;11181;51.002;4.356;2023-04-03T03:07:48;7.00;99.90
22035;DHT22;11181;51.002;4.356;2023-04-03T03:10:15;7.00;99.90
22035;DHT22;11181;51.002;4.356;2023-04-03T03:12:42;7.00;99.90
22035;DHT22;11181;51.002;4.356;2023-04-03T03:15:11;6.90;99.90
22035;DHT22;11181;51.002;4.356;2023-04-03T03:17:38;6.90;99.90
22035;DHT22;11181;51.002;4.356;2023-04-03T03:20:06;6.90;99.90
22035;DHT22;11181;51.002;4.356;2023-04-03T03:22:34;6.90;99.90
22035;DHT22;11181;51.002;4.356;2023-04-03T03:25:01;6.90;99.90
22035;DHT22;11181;51.002;4.356;2023-04-03T03:27:28;6.90;99.90
22035;DHT22;11181;51.002;4.356;2023-04-03T03:29:56;6.80;99.90
22035;DHT22;11181;51.002;4.356;2023-04-03T03:32:24;6.80;99.90
22035;DHT22;11181;51.002;4.356;2023-04-03T03:34:51;6.80;99.90
22035;DHT22;11181;51.002;4.356;2023-04-03T03:37:18;6.80;99.90
22035;DHT22;11181;51.002;4.356;2023-04-03T03:39:45;6.80;99.90
22035;DHT22;11181;51.002;4.356;2023-04-03T03:42:12;6.80;99.90
22035;DHT22;11181;51.002;4.356;2023-04-03T03:44:38;6.80;99.90
22035;DHT22;11181;51.002;4.356;2023-04-03T03:47:05;6.80;99.90
22035;DHT22;11181;51.002;4.356;2023-04-03T03:49:36;6.70;99.90
22035;DHT22;11181;51.002;4.356;2023-04-03T03:52:03;6.70;99.90
22035;DHT22;11181;51.002;4.356;2023-04-03T03:54:30;6.70;99.90
22035;DHT22;11181;51.002;4.356;2023-04-03T03:56:57;6.60;99.90
22035;DHT22;11181;51.002;4.356;2023-04-03T03:59:24;6.60;99.90
22035;DHT22;11181;51.002;4.356;2023-04-03T04:01:51;6.60;99.90
22035;DHT22;11181;51.002;4.356;2023-04-03T04:04:18;6.60;99.90
22035;DHT22;11181;51.002;4.356;2023-04-03T04:06:47;6.60;99.90
22035;DHT22;11181;51.002;4.356;2023-04-03T04:09:14;6.50;99.90
22035;DHT22;11181;51.002;4.356;2023-04-03T04:11:41;6.50;99.90
22035;DHT22;11181;51.002;4.356;2023-04-03T04:14:08;6.50;99.90
22035;DHT22;11181;51.002;4.356;2023-04-03T04:16:35;6.50;99.90
22035;DHT22;11181;51.002;4.356;2023-04-03T04:19:02;6.50;99.90
22035;DHT22;11181;51.002;4.356;2023-04-03T04:21:29;6.40;99.90
22035;DHT22;11181;51.002;4.356;2023-04-03T04:23:58;6.40;99.90
22035;DHT22;11181;51.002;4.356;2023-04-03T04:26:25;6.40;99.90
22035;DHT22;11181;51.002;4.356;2023-04-03T04:28:51;6.40;99.90
22035;DHT22;11181;51.002;4.356;2023-04-03T04:31:18;6.40;99.90
22035;DHT22;11181;51.002;4.356;2023-04-03T04:33:45;6.40;99.90
22035;DHT22;11181;51.002;4.356;2023-04-03T04:36:12;6.40;99.90
22035;DHT22;11181;51.002;4.356;2023-04-03T04:38:40;6.40;99.90
22035;DHT22;11181;51.002;4.356;2023-04-03T04:41:08;6.40;99.90
22035;DHT22;11181;51.002;4.356;2023-04-03T04:43:36;6.40;99.90
22035;DHT22;11181;51.002;4.356;2023-04-03T04:46:04;6.40;99.90
22035;DHT22;11181;51.002;4.356;2023-04-03T04:48:31;6.40;99.90
22035;DHT22;11181;51.002;4.356;2023-04-03T04:50:58;6.40;99.90
22035;DHT22;11181;51.002;4.356;2023-04-03T04:53:25;6.40;99.90
22035;DHT22;11181;51.002;4.356;2023-04-03T04:55:52;6.40;99.90
22035;DHT22;11181;51.002;4.356;2023-04-03T04:58:21;6.40;99.90
22035;DHT22;11181;51.002;4.356;2023-04-03T05:00:48;6.30;99.90
22035;DHT22;11181;51.002;4.356;2023-04-03T05:03:15;6.30;99.90
22035;DHT22;11181;51.002;4.356;2023-04-03T05:05:42;6.30;99.90
22035;DHT22;11181;51.002;4.356;2023-04-03T05:08:09;6.30;99.90
22035;DHT22;11181;51.002;4.356;2023-04-03T05:10:36;6.30;99.90
22035;DHT22;11181;51.002;4.356;2023-04-03T05:13:03;6.30;99.90
22035;DHT22;11181;51.002;4.356;2023-04-03T05:15:31;6.20;99.90
22035;DHT22;11181;51.002;4.356;2023-04-03T05:17:58;6.20;99.90
22035;DHT22;11181;51.002;4.356;2023-04-03T05:20:25;6.20;99.90
22035;DHT22;11181;51.002;4.356;2023-04-03T05:22:52;6.20;99.90
22035;DHT22;11181;51.002;4.356;2023-04-03T05:25:19;6.20;99.90
22035;DHT22;11181;51.002;4.356;2023-04-03T05:27:46;6.20;99.90
22035;DHT22;11181;51.002;4.356;2023-04-03T05:30:13;6.20;99.90
22035;DHT22;11181;51.002;4.356;2023-04-03T05:32:41;6.10;99.90
22035;DHT22;11181;51.002;4.356;2023-04-03T05:35:09;6.20;99.90
22035;DHT22;11181;51.002;4.356;2023-04-03T05:37:36;6.10;99.90
22035;DHT22;11181;51.002;4.356;2023-04-03T05:40:05;6.10;99.90
22035;DHT22;11181;51.002;4.356;2023-04-03T05:42:32;6.10;99.90
22035;DHT22;11181;51.002;4.356;2023-04-03T05:44:59;6.10;99.90
22035;DHT22;11181;51.002;4.356;2023-04-03T05:47:26;6.00;99.90
22035;DHT22;11181;51.002;4.356;2023-04-03T05:49:54;6.00;99.90
22035;DHT22;11181;51.002;4.356;2023-04-03T05:52:23;6.10;99.90
22035;DHT22;11181;51.002;4.356;2023-04-03T05:54:53;6.10;99.90
22035;DHT22;11181;51.002;4.356;2023-04-03T05:57:22;6.10;99.90
22035;DHT22;11181;51.002;4.356;2023-04-03T05:59:49;6.10;99.90
22035;DHT22;11181;51.002;4.356;2023-04-03T06:02:18;6.20;99.90
22035;DHT22;11181;51.002;4.356;2023-04-03T06:04:47;6.20;99.90
22035;DHT22;11181;51.002;4.356;2023-04-03T06:07:17;6.20;99.90
22035;DHT22;11181;51.002;4.356;2023-04-03T06:09:47;6.30;99.90
22035;DHT22;11181;51.002;4.356;2023-04-03T06:12:15;6.50;99.90
22035;DHT22;11181;51.002;4.356;2023-04-03T06:14:43;6.60;99.90
22035;DHT22;11181;51.002;4.356;2023-04-03T06:17:11;6.70;99.90
22035;DHT22;11181;51.002;4.356;2023-04-03T06:19:39;6.70;99.90
22035;DHT22;11181;51.002;4.356;2023-04-03T06:22:10;6.80;99.90
22035;DHT22;11181;51.002;4.356;2023-04-03T06:24:52;6.80;99.90
22035;DHT22;11181;51.002;4.356;2023-04-03T06:27:23;7.00;99.90
22035;DHT22;11181;51.002;4.356;2023-04-03T06:29:50;7.10;99.90
22035;DHT22;11181;51.002;4.356;2023-04-03T06:32:17;7.30;99.90
22035;DHT22;11181;51.002;4.356;2023-04-03T06:34:44;7.40;99.90
22035;DHT22;11181;51.002;4.356;2023-04-03T06:37:15;7.50;99.90
22035;DHT22;11181;51.002;4.356;2023-04-03T06:39:42;7.50;99.90
22035;DHT22;11181;51.002;4.356;2023-04-03T06:42:10;7.50;99.90
22035;DHT22;11181;51.002;4.356;2023-04-03T06:44:37;7.60;99.90
22035;DHT22;11181;51.002;4.356;2023-04-03T06:47:04;7.70;99.90
22035;DHT22;11181;51.002;4.356;2023-04-03T06:49:31;7.70;99.90
22035;DHT22;11181;51.002;4.356;2023-04-03T06:51:58;7.70;99.90
22035;DHT22;11181;51.002;4.356;2023-04-03T06:54:25;7.50;99.90
22035;DHT22;11181;51.002;4.356;2023-04-03T06:56:52;7.30;99.90
22035;DHT22;11181;51.002;4.356;2023-04-03T06:59:20;6.90;99.90
22035;DHT22;11181;51.002;4.356;2023-04-03T07:01:47;6.80;99.90
22035;DHT22;11181;51.002;4.356;2023-04-03T07:04:14;6.60;99.90
22035;DHT22;11181;51.002;4.356;2023-04-03T07:06:41;6.90;99.90
22035;DHT22;11181;51.002;4.356;2023-04-03T07:09:09;7.00;99.90
22035;DHT22;11181;51.002;4.356;2023-04-03T07:11:36;6.70;99.90
22035;DHT22;11181;51.002;4.356;2023-04-03T07:14:03;6.60;99.90
22035;DHT22;11181;51.002;4.356;2023-04-03T07:16:33;6.60;99.90
22035;DHT22;11181;51.002;4.356;2023-04-03T07:19:00;6.30;99.90
22035;DHT22;11181;51.002;4.356;2023-04-03T07:21:27;6.40;99.90
22035;DHT22;11181;51.002;4.356;2023-04-03T07:23:54;6.50;99.90
22035;DHT22;11181;51.002;4.356;2023-04-03T07:26:21;6.70;99.90
22035;DHT22;11181;51.002;4.356;2023-04-03T07:28:49;6.80;99.90
22035;DHT22;11181;51.002;4.356;2023-04-03T07:31:17;7.10;99.90
22035;DHT22;11181;51.002;4.356;2023-04-03T07:33:45;7.20;99.90
22035;DHT22;11181;51.002;4.356;2023-04-03T07:36:16;7.20;99.90
22035;DHT22;11181;51.002;4.356;2023-04-03T07:38:43;7.20;99.90
22035;DHT22;11181;51.002;4.356;2023-04-03T07:41:12;7.20;99.90
22035;DHT22;11181;51.002;4.356;2023-04-03T07:43:40;7.30;99.90
22035;DHT22;11181;51.002;4.356;2023-04-03T07:46:08;7.50;99.90
22035;DHT22;11181;51.002;4.356;2023-04-03T07:48:37;7.90;99.90
22035;DHT22;11181;51.002;4.356;2023-04-03T07:51:05;8.20;99.90
22035;DHT22;11181;51.002;4.356;2023-04-03T07:53:32;8.40;99.90
22035;DHT22;11181;51.002;4.356;2023-04-03T07:56:00;8.50;99.90
22035;DHT22;11181;51.002;4.356;2023-04-03T07:58:29;8.60;99.90
22035;DHT22;11181;51.002;4.356;2023-04-03T08:00:56;8.70;99.90
22035;DHT22;11181;51.002;4.356;2023-04-03T08:03:23;8.90;99.90
22035;DHT22;11181;51.002;4.356;2023-04-03T08:05:50;8.80;99.90
22035;DHT22;11181;51.002;4.356;2023-04-03T08:08:22;8.50;99.90
22035;DHT22;11181;51.002;4.356;2023-04-03T08:10:50;8.10;99.90
22035;DHT22;11181;51.002;4.356;2023-04-03T08:13:17;7.80;99.90
22035;DHT22;11181;51.002;4.356;2023-04-03T08:15:45;8.10;99.90
22035;DHT22;11181;51.002;4.356;2023-04-03T08:18:12;8.60;99.90
22035;DHT22;11181;51.002;4.356;2023-04-03T08:20:40;8.90;99.90
22035;DHT22;11181;51.002;4.356;2023-04-03T08:23:07;9.20;99.90
22035;DHT22;11181;51.002;4.356;2023-04-03T08:25:37;9.40;99.90
22035;DHT22;11181;51.002;4.356;2023-04-03T08:28:05;9.10;99.90
22035;DHT22;11181;51.002;4.356;2023-04-03T08:30:32;9.00;99.90
22035;DHT22;11181;51.002;4.356;2023-04-03T08:33:00;9.30;99.90
22035;DHT22;11181;51.002;4.356;2023-04-03T08:35:27;9.70;99.90
22035;DHT22;11181;51.002;4.356;2023-04-03T08:37:54;10.00;99.90
22035;DHT22;11181;51.002;4.356;2023-04-03T08:40:22;10.40;99.90
22035;DHT22;11181;51.002;4.356;2023-04-03T08:42:58;10.90;99.90
22035;DHT22;11181;51.002;4.356;2023-04-03T08:45:37;11.20;99.90
22035;DHT22;11181;51.002;4.356;2023-04-03T08:48:07;11.00;99.90
22035;DHT22;11181;51.002;4.356;2023-04-03T08:50:39;11.40;99.90
22035;DHT22;11181;51.002;4.356;2023-04-03T08:53:11;11.80;99.90
22035;DHT22;11181;51.002;4.356;2023-04-03T08:55:43;11.50;99.90
22035;DHT22;11181;51.002;4.356;2023-04-03T08:58:16;11.00;99.90
22035;DHT22;11181;51.002;4.356;2023-04-03T09:00:45;10.80;99.90
22035;DHT22;11181;51.002;4.356;2023-04-03T09:03:14;11.20;99.90
22035;DHT22;11181;51.002;4.356;2023-04-03T09:05:45;11.60;99.90
22035;DHT22;11181;51.002;4.356;2023-04-03T09:08:21;11.80;99.90
22035;DHT22;11181;51.002;4.356;2023-04-03T09:10:49;11.40;99.90
22035;DHT22;11181;51.002;4.356;2023-04-03T09:13:26;11.40;99.90
22035;DHT22;11181;51.002;4.356;2023-04-03T09:15:57;11.20;99.90
22035;DHT22;11181;51.002;4.356;2023-04-03T09:18:30;11.20;99.90
22035;DHT22;11181;51.002;4.356;2023-04-03T09:21:05;11.40;99.90
22035;DHT22;11181;51.002;4.356;2023-04-03T09:23:42;11.90;99.90
22035;DHT22;11181;51.002;4.356;2023-04-03T09:26:13;12.40;99.90
22035;DHT22;11181;51.002;4.356;2023-04-03T09:28:42;12.10;99.90
22035;DHT22;11181;51.002;4.356;2023-04-03T09:31:18;12.00;99.90
22035;DHT22;11181;51.002;4.356;2023-04-03T09:33:46;12.10;99.90
22035;DHT22;11181;51.002;4.356;2023-04-03T09:36:13;12.60;99.90
22035;DHT22;11181;51.002;4.356;2023-04-03T09:38:40;13.00;99.90
22035;DHT22;11181;51.002;4.356;2023-04-03T09:41:13;12.70;99.90
22035;DHT22;11181;51.002;4.356;2023-04-03T09:43:53;12.10;99.90
22035;DHT22;11181;51.002;4.356;2023-04-03T09:46:28;11.90;99.90
22035;DHT22;11181;51.002;4.356;2023-04-03T09:48:57;11.90;99.90
22035;DHT22;11181;51.002;4.356;2023-04-03T09:51:26;12.00;99.90
22035;DHT22;11181;51.002;4.356;2023-04-03T09:53:54;12.20;99.90
22035;DHT22;11181;51.002;4.356;2023-04-03T09:56:24;12.60;99.90
22035;DHT22;11181;51.002;4.356;2023-04-03T09:59:07;13.20;99.90
22035;DHT22;11181;51.002;4.356;2023-04-03T10:01:36;13.40;99.90
22035;DHT22;11181;51.002;4.356;2023-04-03T10:04:07;12.90;99.90
22035;DHT22;11181;51.002;4.356;2023-04-03T10:06:36;12.90;99.90
22035;DHT22;11181;51.002;4.356;2023-04-03T10:09:05;13.30;99.90
22035;DHT22;11181;51.002;4.356;2023-04-03T10:11:33;13.60;99.90
22035;DHT22;11181;51.002;4.356;2023-04-03T10:14:02;13.60;99.90
22035;DHT22;11181;51.002;4.356;2023-04-03T10:16:36;13.30;99.90
22035;DHT22;11181;51.002;4.356;2023-04-03T10:19:23;12.70;99.90
22035;DHT22;11181;51.002;4.356;2023-04-03T10:21:57;12.90;99.90
22035;DHT22;11181;51.002;4.356;2023-04-03T10:24:30;13.10;99.90
22035;DHT22;11181;51.002;4.356;2023-04-03T10:27:07;12.90;99.90
22035;DHT22;11181;51.002;4.356;2023-04-03T10:29:44;12.70;99.90
22035;DHT22;11181;51.002;4.356;2023-04-03T10:32:28;12.90;99.90
22035;DHT22;11181;51.002;4.356;2023-04-03T10:35:06;12.60;99.90
22035;DHT22;11181;51.002;4.356;2023-04-03T10:37:45;13.00;99.90
22035;DHT22;11181;51.002;4.356;2023-04-03T10:40:24;13.10;99.90
22035;DHT22;11181;51.002;4.356;2023-04-03T10:43:04;13.00;99.90
22035;DHT22;11181;51.002;4.356;2023-04-03T10:45:53;13.30;99.90
22035;DHT22;11181;51.002;4.356;2023-04-03T10:51:23;13.20;99.90
22035;DHT22;11181;51.002;4.356;2023-04-03T10:53:56;13.50;99.90
22035;DHT22;11181;51.002;4.356;2023-04-03T10:56:31;13.80;99.90
22035;DHT22;11181;51.002;4.356;2023-04-03T10:59:02;14.10;99.90
22035;DHT22;11181;51.002;4.356;2023-04-03T11:01:38;13.80;99.90
22035;DHT22;11181;51.002;4.356;2023-04-03T11:04:09;13.90;99.90
22035;DHT22;11181;51.002;4.356;2023-04-03T11:06:40;14.00;99.90
22035;DHT22;11181;51.002;4.356;2023-04-03T11:09:18;13.90;99.90
22035;DHT22;11181;51.002;4.356;2023-04-03T11:11:47;13.80;99.90
22035;DHT22;11181;51.002;4.356;2023-04-03T11:14:27;14.00;99.90
22035;DHT22;11181;51.002;4.356;2023-04-03T11:17:04;13.90;99.90
22035;DHT22;11181;51.002;4.356;2023-04-03T11:19:36;14.00;99.90
22035;DHT22;11181;51.002;4.356;2023-04-03T11:22:10;14.30;99.90
22035;DHT22;11181;51.002;4.356;2023-04-03T11:24:42;14.90;99.90
22035;DHT22;11181;51.002;4.356;2023-04-03T11:27:15;14.90;99.90
22035;DHT22;11181;51.002;4.356;2023-04-03T11:29:46;15.10;99.90
22035;DHT22;11181;51.002;4.356;2023-04-03T11:32:33;14.70;99.90
22035;DHT22;11181;51.002;4.356;2023-04-03T11:35:05;14.50;99.90
22035;DHT22;11181;51.002;4.356;2023-04-03T11:37:35;14.30;99.90
22035;DHT22;11181;51.002;4.356;2023-04-03T11:40:06;14.20;99.90
22035;DHT22;11181;51.002;4.356;2023-04-03T11:42:38;14.10;99.90
22035;DHT22;11181;51.002;4.356;2023-04-03T11:45:26;13.80;99.90
22035;DHT22;11181;51.002;4.356;2023-04-03T11:47:58;13.70;99.90
22035;DHT22;11181;51.002;4.356;2023-04-03T11:50:42;14.00;99.90
22035;DHT22;11181;51.002;4.356;2023-04-03T11:53:42;13.70;99.90
22035;DHT22;11181;51.002;4.356;2023-04-03T11:56:28;14.30;99.90
22035;DHT22;11181;51.002;4.356;2023-04-03T11:59:16;14.90;99.90
22035;DHT22;11181;51.002;4.356;2023-04-03T12:01:45;14.90;98.50
22035;DHT22;11181;51.002;4.356;2023-04-03T12:04:15;15.50;99.90
22035;DHT22;11181;51.002;4.356;2023-04-03T12:06:53;15.00;94.40
22035;DHT22;11181;51.002;4.356;2023-04-03T12:09:28;15.00;96.40
22035;DHT22;11181;51.002;4.356;2023-04-03T12:11:56;15.00;96.00
22035;DHT22;11181;51.002;4.356;2023-04-03T12:14:26;14.90;93.50
22035;DHT22;11181;51.002;4.356;2023-04-03T12:16:53;15.10;96.00
22035;DHT22;11181;51.002;4.356;2023-04-03T12:19:36;15.30;94.00
22035;DHT22;11181;51.002;4.356;2023-04-03T12:22:16;15.60;92.10
22035;DHT22;11181;51.002;4.356;2023-04-03T12:24:48;15.10;93.30
22035;DHT22;11181;51.002;4.356;2023-04-03T12:27:33;14.80;94.60
22035;DHT22;11181;51.002;4.356;2023-04-03T12:30:18;14.90;91.10
22035;DHT22;11181;51.002;4.356;2023-04-03T12:33:17;15.20;93.20
22035;DHT22;11181;51.002;4.356;2023-04-03T12:35:57;14.70;90.00
22035;DHT22;11181;51.002;4.356;2023-04-03T12:38:55;14.70;91.20
22035;DHT22;11181;51.002;4.356;2023-04-03T12:41:32;14.80;92.10
22035;DHT22;11181;51.002;4.356;2023-04-03T12:44:33;14.90;89.30
22035;DHT22;11181;51.002;4.356;2023-04-03T12:47:16;14.30;90.50
22035;DHT22;11181;51.002;4.356;2023-04-03T12:49:49;14.30;89.70
22035;DHT22;11181;51.002;4.356;2023-04-03T12:52:30;14.60;89.40
22035;DHT22;11181;51.002;4.356;2023-04-03T12:55:00;14.50;87.60
22035;DHT22;11181;51.002;4.356;2023-04-03T12:57:30;14.00;88.50
22035;DHT22;11181;51.002;4.356;2023-04-03T12:59:58;14.30;86.80
22035;DHT22;11181;51.002;4.356;2023-04-03T13:02:27;15.20;88.70
22035;DHT22;11181;51.002;4.356;2023-04-03T13:04:57;15.50;86.30
22035;DHT22;11181;51.002;4.356;2023-04-03T13:07:29;15.10;87.80
22035;DHT22;11181;51.002;4.356;2023-04-03T13:10:15;14.70;81.50
22035;DHT22;11181;51.002;4.356;2023-04-03T13:12:47;15.00;81.90
22035;DHT22;11181;51.002;4.356;2023-04-03T13:15:16;15.10;80.90
22035;DHT22;11181;51.002;4.356;2023-04-03T13:17:43;15.10;81.30
22035;DHT22;11181;51.002;4.356;2023-04-03T13:20:13;14.90;78.40
22035;DHT22;11181;51.002;4.356;2023-04-03T13:22:49;14.40;79.80
22035;DHT22;11181;51.002;4.356;2023-04-03T13:25:19;14.10;82.30
22035;DHT22;11181;51.002;4.356;2023-04-03T13:27:47;14.40;83.70
22035;DHT22;11181;51.002;4.356;2023-04-03T13:30:27;14.10;83.70
22035;DHT22;11181;51.002;4.356;2023-04-03T13:32:56;14.50;86.60
22035;DHT22;11181;51.002;4.356;2023-04-03T13:35:37;14.90;90.70
22035;DHT22;11181;51.002;4.356;2023-04-03T13:38:21;15.40;88.30
22035;DHT22;11181;51.002;4.356;2023-04-03T13:40:50;15.30;86.40
22035;DHT22;11181;51.002;4.356;2023-04-03T13:43:19;15.20;83.30
22035;DHT22;11181;51.002;4.356;2023-04-03T13:46:03;15.20;85.20
22035;DHT22;11181;51.002;4.356;2023-04-03T13:48:37;15.10;87.70
22035;DHT22;11181;51.002;4.356;2023-04-03T13:51:06;15.70;88.90
22035;DHT22;11181;51.002;4.356;2023-04-03T13:53:45;16.10;87.00
22035;DHT22;11181;51.002;4.356;2023-04-03T13:56:20;15.70;86.00
22035;DHT22;11181;51.002;4.356;2023-04-03T13:59:04;15.50;84.30
22035;DHT22;11181;51.002;4.356;2023-04-03T14:01:50;15.00;88.60
22035;DHT22;11181;51.002;4.356;2023-04-03T14:04:20;15.70;90.30
22035;DHT22;11181;51.002;4.356;2023-04-03T14:06:48;16.10;86.80
22035;DHT22;11181;51.002;4.356;2023-04-03T14:09:19;16.20;91.90
22035;DHT22;11181;51.002;4.356;2023-04-03T14:11:48;16.30;84.50
22035;DHT22;11181;51.002;4.356;2023-04-03T14:14:18;16.20;85.70
22035;DHT22;11181;51.002;4.356;2023-04-03T14:16:50;16.10;86.90
22035;DHT22;11181;51.002;4.356;2023-04-03T14:19:21;16.40;87.90
22035;DHT22;11181;51.002;4.356;2023-04-03T14:21:48;16.40;86.60
22035;DHT22;11181;51.002;4.356;2023-04-03T14:24:18;16.60;87.90
22035;DHT22;11181;51.002;4.356;2023-04-03T14:26:45;16.40;84.60
22035;DHT22;11181;51.002;4.356;2023-04-03T14:29:13;16.30;84.10
22035;DHT22;11181;51.002;4.356;2023-04-03T14:31:40;16.10;86.40
22035;DHT22;11181;51.002;4.356;2023-04-03T14:34:09;16.50;85.60
22035;DHT22;11181;51.002;4.356;2023-04-03T14:36:36;16.20;83.80
22035;DHT22;11181;51.002;4.356;2023-04-03T14:39:04;16.60;84.80
22035;DHT22;11181;51.002;4.356;2023-04-03T14:41:32;16.40;81.20
22035;DHT22;11181;51.002;4.356;2023-04-03T14:43:59;15.90;80.40
22035;DHT22;11181;51.002;4.356;2023-04-03T14:46:29;15.90;82.10
22035;DHT22;11181;51.002;4.356;2023-04-03T14:48:57;16.20;79.40
22035;DHT22;11181;51.002;4.356;2023-04-03T14:51:24;16.70;82.50
22035;DHT22;11181;51.002;4.356;2023-04-03T14:53:52;17.00;81.00
22035;DHT22;11181;51.002;4.356;2023-04-03T14:56:24;16.50;78.60
22035;DHT22;11181;51.002;4.356;2023-04-03T14:58:56;16.30;74.40
22035;DHT22;11181;51.002;4.356;2023-04-03T15:01:24;16.60;81.00
22035;DHT22;11181;51.002;4.356;2023-04-03T15:03:51;17.10;76.70
22035;DHT22;11181;51.002;4.356;2023-04-03T15:06:18;17.00;77.10
22035;DHT22;11181;51.002;4.356;2023-04-03T15:08:46;16.90;74.30
22035;DHT22;11181;51.002;4.356;2023-04-03T15:11:14;16.20;72.80
22035;DHT22;11181;51.002;4.356;2023-04-03T15:13:41;15.50;70.90
22035;DHT22;11181;51.002;4.356;2023-04-03T15:16:15;15.50;73.60
22035;DHT22;11181;51.002;4.356;2023-04-03T15:18:43;15.20;76.90
22035;DHT22;11181;51.002;4.356;2023-04-03T15:21:10;15.40;76.80
22035;DHT22;11181;51.002;4.356;2023-04-03T15:23:37;14.70;75.80
22035;DHT22;11181;51.002;4.356;2023-04-03T15:26:05;14.90;75.30
22035;DHT22;11181;51.002;4.356;2023-04-03T15:28:35;14.90;78.40
22035;DHT22;11181;51.002;4.356;2023-04-03T15:31:03;14.90;77.00
22035;DHT22;11181;51.002;4.356;2023-04-03T15:33:32;14.60;77.10
22035;DHT22;11181;51.002;4.356;2023-04-03T15:35:59;15.00;78.40
22035;DHT22;11181;51.002;4.356;2023-04-03T15:38:28;15.30;76.80
22035;DHT22;11181;51.002;4.356;2023-04-03T15:40:55;15.10;76.10
22035;DHT22;11181;51.002;4.356;2023-04-03T15:43:23;15.10;74.80
22035;DHT22;11181;51.002;4.356;2023-04-03T15:45:50;14.90;75.90
22035;DHT22;11181;51.002;4.356;2023-04-03T15:48:17;14.80;71.80
22035;DHT22;11181;51.002;4.356;2023-04-03T15:50:46;14.90;75.60
22035;DHT22;11181;51.002;4.356;2023-04-03T15:53:13;14.70;71.70
22035;DHT22;11181;51.002;4.356;2023-04-03T15:55:40;14.70;74.60
22035;DHT22;11181;51.002;4.356;2023-04-03T15:58:07;14.80;75.50
22035;DHT22;11181;51.002;4.356;2023-04-03T16:00:35;14.90;77.10
22035;DHT22;11181;51.002;4.356;2023-04-03T16:03:06;14.90;76.70
22035;DHT22;11181;51.002;4.356;2023-04-03T16:05:35;14.70;72.30
22035;DHT22;11181;51.002;4.356;2023-04-03T16:08:05;14.50;74.90